Tropical Cyclones
[Index]
Season 2021-2022 Tropical Cyclone CHARLOTTE Track Map
Season 2021-2022 Summaries: [BoM-AU]
<<- Previous TC | BoM 2021-2022 Season | Next TC ->>

click for intensity scale information  Lat/long Grid: Show Hide

 Date Labels: Show Hide

Bureau of Meteorology Tropical Cyclone Data

Name: CHARLOTTE

18 Mar 2022 18:00 UTC to 25 Mar 2022 06:00 UTC

    date/time    lat    long    hPa   cat  kts
2022-03-18 18   11.1   118.9   1008         20          
2022-03-19 00   11.2   118.1   1007         20          
2022-03-19 06   11.2   117.5   1002         25          
2022-03-19 12   11.4   116.9   1003         25          
2022-03-19 18   11.5   116.0   1001         30          
2022-03-20 00   11.9   115.1   1001         35          
2022-03-20 06   12.5   114.5   1000         35          
2022-03-20 12   13.0   113.8    997         40          
2022-03-20 18   14.0   113.4    995    1    45          
2022-03-21 00   14.9   112.1    992    1    50          
2022-03-21 06   15.3   111.1    991    1    50          
2022-03-21 12   16.0   110.4    988    1    55          
2022-03-21 18   16.4   110.0    979    2    65          
2022-03-21 21   16.5   109.6    957    3    90          
2022-03-22 00   16.6   109.3    957    3    90          
2022-03-22 06   17.1   109.1    957    3    90          
2022-03-22 12   17.6   109.0    956    3    90          
2022-03-22 18   17.8   108.9    965    3    80          
2022-03-23 00   18.5   108.8    973    2    70          
2022-03-23 06   19.0   108.4    977    2    65          
2022-03-23 12   19.2   108.1    983    2    55          
2022-03-23 18   19.3   107.6   1001         30          
2022-03-24 00   19.8   107.3   1001         30          
2022-03-24 06   21.0   107.3   1002         30          
2022-03-24 12   22.0   107.0   1002         30          
2022-03-24 18   24.1   106.8   1002         30          
2022-03-25 00   25.0   107.0   1002         30          
2022-03-25 06   27.5   107.8   1002         30          
Winds are 10-min average.

Tropical cyclone tracks developed by Michael Bath using data from the Bureau of Meteorology and Google Maps.


Document: tropical_cyclone_charlotte.htm
Updated: 23 June 2022
[Australian Severe Weather index] [Copyright Notice] [Email Contacts] [Search This Site] [Privacy Policy]


Main Index Home Page Stock Weather Photos Extreme Storms Discussion Storm News and Storm Chasing Reports Tropical Cyclones / Hurricanes / Typhoons Weather Data and Links Wild Fires / Bushfires Weather Observation Techniques Weather Picture Catalogue Tornado Pictures and Reports Stock Video Footage and DVDs for sale